createdAt,value
2022-12-31T00:00:08.199Z,100.00
2022-12-31T00:02:35.168Z,100.00
2022-12-31T00:05:02.209Z,100.00
2022-12-31T00:07:29.036Z,100.00
2022-12-31T00:09:55.864Z,100.00
2022-12-31T00:12:22.699Z,100.00
2022-12-31T00:14:49.519Z,100.00
2022-12-31T00:17:16.427Z,100.00
2022-12-31T00:19:43.933Z,100.00
2022-12-31T00:22:10.798Z,100.00
2022-12-31T00:24:37.627Z,100.00
2022-12-31T00:27:04.514Z,100.00
2022-12-31T00:29:31.354Z,100.00
2022-12-31T00:31:58.139Z,100.00
2022-12-31T00:34:25.007Z,100.00
2022-12-31T00:36:52.802Z,100.00
2022-12-31T00:39:19.598Z,100.00
2022-12-31T00:41:46.424Z,100.00
2022-12-31T00:44:13.871Z,100.00
2022-12-31T00:49:06.910Z,100.00
2022-12-31T00:51:33.748Z,100.00
2022-12-31T00:54:00.655Z,100.00
2022-12-31T00:56:29.126Z,100.00
2022-12-31T00:58:56.240Z,100.00
2022-12-31T01:01:23.122Z,100.00
2022-12-31T01:03:51.315Z,100.00
2022-12-31T01:06:18.767Z,100.00
2022-12-31T01:08:47.993Z,100.00
2022-12-31T01:11:22.485Z,100.00
2022-12-31T01:13:54.392Z,100.00
2022-12-31T01:16:25.839Z,100.00
2022-12-31T01:18:52.680Z,100.00
2022-12-31T01:21:20.392Z,100.00
2022-12-31T01:23:47.608Z,100.00
2022-12-31T01:26:15.681Z,100.00
2022-12-31T01:28:42.869Z,100.00
2022-12-31T01:31:14.276Z,100.00
2022-12-31T01:33:41.698Z,100.00
2022-12-31T01:36:11.277Z,100.00
2022-12-31T01:38:38.144Z,100.00
2022-12-31T01:41:05.027Z,100.00
2022-12-31T01:43:50.652Z,100.00
2022-12-31T01:46:20.802Z,100.00
2022-12-31T01:48:49.953Z,100.00
2022-12-31T01:51:17.108Z,100.00
2022-12-31T01:53:43.958Z,100.00
2022-12-31T01:56:10.822Z,100.00
2022-12-31T01:58:40.005Z,100.00
2022-12-31T02:01:08.113Z,100.00
2022-12-31T02:03:35.305Z,100.00
2022-12-31T02:06:08.653Z,100.00
2022-12-31T02:08:41.766Z,100.00
2022-12-31T02:11:22.664Z,100.00
2022-12-31T02:13:55.036Z,100.00
2022-12-31T02:16:31.460Z,100.00
2022-12-31T02:19:04.350Z,100.00
2022-12-31T02:22:09.547Z,100.00
2022-12-31T02:24:36.489Z,100.00
2022-12-31T02:27:06.840Z,100.00
2022-12-31T02:29:52.515Z,100.00
2022-12-31T02:32:19.309Z,100.00
2022-12-31T02:34:50.656Z,100.00
2022-12-31T02:37:18.457Z,100.00
2022-12-31T02:39:45.909Z,100.00
2022-12-31T02:42:12.975Z,100.00
2022-12-31T02:44:40.805Z,100.00
2022-12-31T02:47:07.615Z,100.00
2022-12-31T02:49:53.396Z,100.00
2022-12-31T02:52:35.170Z,100.00
2022-12-31T02:55:12.128Z,100.00
2022-12-31T02:57:41.984Z,100.00
2022-12-31T03:00:32.401Z,100.00
2022-12-31T03:03:01.083Z,100.00
2022-12-31T03:05:29.526Z,100.00
2022-12-31T03:07:56.374Z,100.00
2022-12-31T03:10:23.320Z,100.00
2022-12-31T03:12:51.353Z,100.00
2022-12-31T03:15:22.690Z,100.00
2022-12-31T03:17:50.680Z,100.00
2022-12-31T03:20:36.436Z,100.00
2022-12-31T03:23:07.498Z,100.00
2022-12-31T03:25:35.149Z,100.00
2022-12-31T03:28:03.263Z,100.00
2022-12-31T03:30:31.877Z,100.00
2022-12-31T03:32:59.156Z,100.00
2022-12-31T03:35:26.784Z,100.00
2022-12-31T03:37:53.840Z,100.00
2022-12-31T03:40:21.573Z,100.00
2022-12-31T03:42:48.414Z,100.00
2022-12-31T03:45:15.294Z,100.00
2022-12-31T03:47:42.391Z,100.00
2022-12-31T03:50:09.850Z,100.00
2022-12-31T03:52:37.779Z,100.00
2022-12-31T03:55:05.239Z,100.00
2022-12-31T03:57:32.430Z,100.00
2022-12-31T03:59:59.344Z,100.00
2022-12-31T04:02:28.909Z,100.00
2022-12-31T04:04:56.309Z,100.00
2022-12-31T04:07:23.244Z,100.00
2022-12-31T04:09:50.124Z,100.00
2022-12-31T04:12:17.204Z,100.00
2022-12-31T04:14:44.094Z,100.00
2022-12-31T04:17:11.051Z,100.00
2022-12-31T04:19:37.919Z,100.00
2022-12-31T04:22:05.003Z,100.00
2022-12-31T04:24:31.891Z,100.00
2022-12-31T04:27:03.563Z,100.00
2022-12-31T04:29:32.333Z,100.00
2022-12-31T04:31:59.192Z,100.00
2022-12-31T04:34:26.102Z,100.00
2022-12-31T04:36:53.467Z,100.00
2022-12-31T04:39:20.352Z,100.00
2022-12-31T04:41:47.239Z,100.00
2022-12-31T04:44:14.153Z,100.00
2022-12-31T04:46:41.019Z,100.00
2022-12-31T04:49:08.215Z,100.00
2022-12-31T04:51:35.225Z,100.00
2022-12-31T04:54:02.078Z,100.00
2022-12-31T04:56:29.227Z,100.00
2022-12-31T04:58:56.157Z,100.00
2022-12-31T05:01:23.168Z,100.00
2022-12-31T05:03:51.234Z,100.00
2022-12-31T05:06:22.510Z,100.00
2022-12-31T05:08:50.029Z,100.00
2022-12-31T05:11:17.612Z,100.00
2022-12-31T05:13:44.768Z,100.00
2022-12-31T05:16:11.797Z,100.00
2022-12-31T05:18:38.766Z,100.00
2022-12-31T05:21:06.130Z,100.00
2022-12-31T05:23:32.989Z,100.00
2022-12-31T05:25:59.907Z,100.00
2022-12-31T05:28:26.762Z,100.00
2022-12-31T05:30:53.745Z,100.00
2022-12-31T05:33:21.201Z,100.00
2022-12-31T05:35:48.007Z,100.00
2022-12-31T05:38:14.922Z,100.00
2022-12-31T05:40:41.755Z,100.00
2022-12-31T05:43:08.599Z,100.00
2022-12-31T05:45:35.528Z,100.00
2022-12-31T05:48:02.385Z,100.00
2022-12-31T05:50:29.276Z,100.00
2022-12-31T05:52:56.285Z,100.00
2022-12-31T05:55:23.489Z,100.00
2022-12-31T05:57:50.314Z,100.00
2022-12-31T06:00:17.278Z,100.00
2022-12-31T06:02:45.263Z,100.00
2022-12-31T06:05:12.354Z,100.00
2022-12-31T06:07:39.192Z,100.00
2022-12-31T06:10:06.458Z,100.00
2022-12-31T06:12:33.328Z,100.00
2022-12-31T06:15:00.455Z,100.00
2022-12-31T06:17:27.353Z,100.00
2022-12-31T06:19:54.177Z,100.00
2022-12-31T06:22:20.995Z,100.00
2022-12-31T06:24:47.814Z,100.00
2022-12-31T06:27:14.631Z,100.00
2022-12-31T06:29:41.527Z,100.00
2022-12-31T06:32:08.433Z,100.00
2022-12-31T06:34:35.292Z,100.00
2022-12-31T06:37:02.163Z,100.00
2022-12-31T06:39:29.038Z,100.00
2022-12-31T06:41:55.909Z,100.00
2022-12-31T06:44:22.822Z,100.00
2022-12-31T06:46:49.916Z,100.00
2022-12-31T06:49:17.253Z,100.00
2022-12-31T06:51:46.003Z,100.00
2022-12-31T06:54:13.540Z,100.00
2022-12-31T06:56:40.735Z,100.00
2022-12-31T06:59:15.154Z,100.00
2022-12-31T07:01:42.067Z,100.00
2022-12-31T07:04:29.081Z,100.00
2022-12-31T07:06:55.971Z,100.00
2022-12-31T07:09:25.604Z,100.00
2022-12-31T07:12:10.975Z,100.00
2022-12-31T07:14:43.708Z,100.00
2022-12-31T07:17:27.280Z,100.00
2022-12-31T07:20:06.338Z,100.00
2022-12-31T07:22:33.329Z,100.00
2022-12-31T07:25:00.397Z,100.00
2022-12-31T07:27:36.105Z,100.00
2022-12-31T07:30:15.162Z,100.00
2022-12-31T07:33:00.539Z,100.00
2022-12-31T07:35:39.028Z,100.00
2022-12-31T07:38:12.388Z,100.00
2022-12-31T07:40:57.748Z,100.00
2022-12-31T07:43:31.125Z,100.00
2022-12-31T07:46:13.638Z,100.00
2022-12-31T07:48:40.766Z,100.00
2022-12-31T07:51:09.458Z,100.00
2022-12-31T07:53:36.390Z,100.00
2022-12-31T07:56:04.697Z,100.00
2022-12-31T07:58:31.514Z,100.00
2022-12-31T08:01:00.157Z,100.00
2022-12-31T08:03:39.258Z,100.00
2022-12-31T08:06:12.396Z,100.00
2022-12-31T08:08:58.238Z,100.00
2022-12-31T08:11:37.135Z,100.00
2022-12-31T08:14:04.173Z,100.00
2022-12-31T08:16:31.220Z,100.00
2022-12-31T08:18:58.308Z,100.00
2022-12-31T08:21:29.500Z,100.00
2022-12-31T08:24:01.361Z,100.00
2022-12-31T08:26:34.898Z,100.00
2022-12-31T08:29:08.502Z,100.00
2022-12-31T08:31:50.566Z,100.00
2022-12-31T08:34:22.955Z,100.00
2022-12-31T08:36:56.904Z,100.00
2022-12-31T08:39:33.400Z,100.00
2022-12-31T08:42:03.602Z,100.00
2022-12-31T08:44:39.362Z,100.00
2022-12-31T08:47:13.280Z,100.00
2022-12-31T08:49:40.744Z,100.00
2022-12-31T08:52:14.716Z,100.00
2022-12-31T08:54:41.763Z,100.00
2022-12-31T08:57:15.060Z,100.00
2022-12-31T08:59:41.842Z,100.00
2022-12-31T09:02:08.697Z,100.00
2022-12-31T09:04:35.606Z,100.00
2022-12-31T09:07:03.709Z,100.00
2022-12-31T09:09:39.450Z,100.00
2022-12-31T09:12:14.258Z,100.00
2022-12-31T09:14:48.886Z,100.00
2022-12-31T09:17:34.819Z,100.00
2022-12-31T09:20:02.672Z,100.00
2022-12-31T09:22:29.875Z,100.00
2022-12-31T09:24:56.915Z,100.00
2022-12-31T09:27:27.992Z,100.00
2022-12-31T09:30:00.197Z,100.00
2022-12-31T09:32:35.889Z,100.00
2022-12-31T09:35:21.713Z,100.00
2022-12-31T09:37:50.485Z,100.00
2022-12-31T09:40:32.287Z,100.00
2022-12-31T09:43:02.352Z,100.00
2022-12-31T09:45:48.034Z,100.00
2022-12-31T09:48:18.129Z,100.00
2022-12-31T09:50:48.723Z,100.00
2022-12-31T09:53:34.231Z,100.00
2022-12-31T09:56:03.881Z,100.00
2022-12-31T09:58:33.621Z,100.00
2022-12-31T10:01:00.491Z,100.00
2022-12-31T10:03:39.353Z,100.00
2022-12-31T10:06:06.165Z,100.00
2022-12-31T10:08:51.993Z,100.00
2022-12-31T10:11:30.011Z,100.00
2022-12-31T10:14:07.076Z,100.00
2022-12-31T10:16:41.808Z,100.00
2022-12-31T10:19:27.376Z,100.00
2022-12-31T10:22:13.558Z,100.00
2022-12-31T10:24:59.257Z,100.00
2022-12-31T10:27:37.806Z,100.00
2022-12-31T10:30:21.410Z,100.00
2022-12-31T10:33:08.242Z,100.00
2022-12-31T10:35:41.154Z,100.00
2022-12-31T10:38:26.591Z,99.98
2022-12-31T10:40:53.433Z,100.00
2022-12-31T10:43:20.361Z,99.82
2022-12-31T10:45:53.018Z,100.00
2022-12-31T10:48:35.459Z,100.00
2022-12-31T10:51:22.843Z,100.00
2022-12-31T10:54:08.159Z,100.00
2022-12-31T10:56:43.819Z,99.34
2022-12-31T10:59:22.915Z,100.00
2022-12-31T11:01:52.901Z,99.96
2022-12-31T11:04:38.759Z,99.72
2022-12-31T11:07:05.595Z,100.00
2022-12-31T11:09:51.267Z,99.83
2022-12-31T11:12:36.720Z,98.90
2022-12-31T11:15:06.708Z,99.67
2022-12-31T11:17:52.612Z,98.88
2022-12-31T11:20:34.631Z,98.91
2022-12-31T11:23:09.864Z,98.88
2022-12-31T11:25:55.034Z,99.19
2022-12-31T11:28:40.730Z,99.72
2022-12-31T11:31:07.570Z,97.70
2022-12-31T11:33:44.079Z,97.92
2022-12-31T11:36:16.393Z,98.68
2022-12-31T11:38:46.471Z,97.96
2022-12-31T11:41:34.836Z,97.90
2022-12-31T11:44:10.892Z,97.95
2022-12-31T11:46:39.684Z,97.62
2022-12-31T11:49:06.533Z,97.90
2022-12-31T11:51:39.566Z,98.44
2022-12-31T11:54:21.714Z,97.96
2022-12-31T11:56:58.398Z,97.22
2022-12-31T11:59:25.359Z,97.53
2022-12-31T12:01:59.159Z,96.90
2022-12-31T12:04:26.186Z,96.77
2022-12-31T12:06:53.323Z,96.06
2022-12-31T12:09:28.938Z,96.37
2022-12-31T12:12:00.705Z,97.09
2022-12-31T12:14:35.602Z,96.14
2022-12-31T12:17:06.526Z,96.30
2022-12-31T12:19:34.587Z,96.69
2022-12-31T12:22:22.147Z,96.64
2022-12-31T12:24:56.740Z,95.98
2022-12-31T12:27:26.978Z,96.36
2022-12-31T12:29:53.872Z,95.73
2022-12-31T12:32:22.928Z,95.56
2022-12-31T12:34:50.339Z,95.98
2022-12-31T12:37:28.587Z,95.36
2022-12-31T12:40:00.836Z,95.13
2022-12-31T12:42:27.964Z,96.05
2022-12-31T12:45:05.305Z,95.36
2022-12-31T12:47:33.156Z,95.92
2022-12-31T12:50:00.279Z,96.20
2022-12-31T12:52:42.490Z,94.90
2022-12-31T12:55:27.793Z,95.35
2022-12-31T12:57:57.782Z,95.14
2022-12-31T13:00:31.680Z,94.69
2022-12-31T13:03:07.813Z,94.12
2022-12-31T13:05:41.069Z,94.66
2022-12-31T13:08:26.671Z,94.74
2022-12-31T13:11:15.392Z,95.01
2022-12-31T13:13:45.400Z,93.77
2022-12-31T13:16:30.066Z,93.93
2022-12-31T13:18:59.983Z,93.84
2022-12-31T13:21:29.643Z,95.00
2022-12-31T13:24:18.361Z,94.89
2022-12-31T13:26:50.797Z,94.05
2022-12-31T13:29:19.397Z,94.86
2022-12-31T13:31:47.970Z,95.34
2022-12-31T13:34:26.887Z,94.84
2022-12-31T13:36:55.579Z,95.50
2022-12-31T13:39:24.900Z,94.37
2022-12-31T13:42:10.740Z,95.29
2022-12-31T13:44:47.696Z,95.34
2022-12-31T13:47:24.647Z,94.64
2022-12-31T13:50:03.492Z,93.97
2022-12-31T13:52:46.513Z,94.62
2022-12-31T13:55:25.383Z,93.93
2022-12-31T13:58:04.869Z,94.96
2022-12-31T14:00:37.099Z,93.65
2022-12-31T14:03:10.065Z,93.85
2022-12-31T14:05:46.950Z,93.93
2022-12-31T14:08:14.316Z,94.01
2022-12-31T14:10:41.846Z,93.72
2022-12-31T14:13:47.261Z,93.93
2022-12-31T14:16:32.289Z,94.53
2022-12-31T14:19:16.657Z,94.24
2022-12-31T14:21:50.641Z,94.81
2022-12-31T14:24:31.955Z,95.95
2022-12-31T14:27:00.551Z,95.83
2022-12-31T14:29:34.521Z,96.44
2022-12-31T14:32:16.764Z,96.68
2022-12-31T14:34:49.788Z,96.35
2022-12-31T14:37:35.664Z,95.80
2022-12-31T14:40:14.536Z,95.57
2022-12-31T14:42:59.864Z,96.46
2022-12-31T14:45:35.648Z,96.92
2022-12-31T14:48:22.297Z,96.66
2022-12-31T14:50:49.753Z,96.20
2022-12-31T14:53:24.787Z,96.32
2022-12-31T14:56:05.074Z,95.26
2022-12-31T14:58:39.096Z,96.08
2022-12-31T15:01:14.953Z,95.45
2022-12-31T15:03:45.801Z,95.93
2022-12-31T15:06:25.124Z,95.86
2022-12-31T15:09:10.969Z,95.00
2022-12-31T15:11:37.783Z,95.18
2022-12-31T15:14:30.943Z,95.87
2022-12-31T15:17:04.879Z,96.52
2022-12-31T15:19:40.874Z,95.87
2022-12-31T15:22:16.735Z,97.13
2022-12-31T15:24:45.721Z,96.61
2022-12-31T15:27:31.127Z,96.82
2022-12-31T15:29:58.279Z,96.93
2022-12-31T15:32:31.310Z,97.28
2022-12-31T15:35:21.388Z,96.55
2022-12-31T15:38:23.798Z,97.06
2022-12-31T15:40:52.004Z,96.93
2022-12-31T15:43:24.812Z,97.02
2022-12-31T15:45:54.044Z,97.28
2022-12-31T15:48:32.117Z,96.82
2022-12-31T15:51:00.553Z,96.85
2022-12-31T15:53:27.360Z,96.99
2022-12-31T15:55:54.817Z,96.74
2022-12-31T15:58:26.859Z,97.47
2022-12-31T16:01:12.928Z,96.70
2022-12-31T16:03:43.691Z,97.23
2022-12-31T16:06:12.276Z,96.71
2022-12-31T16:08:40.722Z,97.33
2022-12-31T16:11:08.930Z,97.08
2022-12-31T16:13:39.234Z,97.62
2022-12-31T16:16:07.995Z,97.79
2022-12-31T16:18:39.361Z,97.90
2022-12-31T16:21:06.937Z,98.45
2022-12-31T16:23:38.772Z,98.11
2022-12-31T16:26:09.840Z,97.46
2022-12-31T16:28:37.005Z,98.28
2022-12-31T16:31:05.390Z,97.38
2022-12-31T16:33:32.659Z,97.90
2022-12-31T16:36:00.773Z,97.97
2022-12-31T16:38:35.023Z,97.87
2022-12-31T16:41:01.876Z,98.41
2022-12-31T16:43:30.395Z,98.04
2022-12-31T16:46:08.522Z,97.45
2022-12-31T16:48:36.225Z,98.10
2022-12-31T16:51:03.345Z,97.25
2022-12-31T16:53:32.556Z,97.78
2022-12-31T16:56:04.661Z,97.60
2022-12-31T16:58:33.520Z,97.61
2022-12-31T17:01:20.834Z,97.87
2022-12-31T17:03:51.512Z,96.23
2022-12-31T17:06:19.153Z,96.81
2022-12-31T17:08:46.087Z,96.41
2022-12-31T17:11:23.846Z,96.32
2022-12-31T17:13:55.564Z,96.16
2022-12-31T17:16:22.809Z,95.88
2022-12-31T17:18:49.741Z,96.39
2022-12-31T17:21:16.787Z,96.18
2022-12-31T17:23:49.231Z,94.76
2022-12-31T17:26:23.692Z,95.81
2022-12-31T17:28:51.869Z,94.40
2022-12-31T17:31:25.494Z,93.59
2022-12-31T17:34:04.337Z,93.63
2022-12-31T17:36:31.136Z,93.92
2022-12-31T17:39:18.361Z,93.67
2022-12-31T17:41:46.407Z,93.52
2022-12-31T17:44:18.342Z,93.38
2022-12-31T17:46:45.481Z,93.54
2022-12-31T17:49:14.139Z,93.85
2022-12-31T17:51:47.348Z,93.03
2022-12-31T17:54:18.334Z,92.97
2022-12-31T17:56:45.411Z,92.43
2022-12-31T17:59:15.639Z,92.48
2022-12-31T18:01:42.691Z,92.29
2022-12-31T18:04:13.588Z,93.29
2022-12-31T18:06:40.708Z,93.18
2022-12-31T18:09:07.788Z,92.39
2022-12-31T18:11:35.419Z,92.46
2022-12-31T18:14:02.430Z,92.30
2022-12-31T18:16:29.588Z,92.43
2022-12-31T18:18:58.312Z,93.30
2022-12-31T18:21:29.807Z,92.58
2022-12-31T18:26:23.905Z,91.85
2022-12-31T18:28:51.148Z,92.38
2022-12-31T18:31:18.005Z,92.13
2022-12-31T18:33:46.743Z,92.92
2022-12-31T18:36:14.825Z,90.97
2022-12-31T18:38:41.740Z,91.27
2022-12-31T18:41:15.181Z,90.94
2022-12-31T18:43:42.008Z,90.79
2022-12-31T18:46:17.260Z,90.90
2022-12-31T18:48:44.400Z,89.88
2022-12-31T18:51:15.104Z,89.05
2022-12-31T18:53:41.987Z,88.22
2022-12-31T18:56:11.282Z,88.54
2022-12-31T18:58:38.179Z,89.04
2022-12-31T19:01:05.152Z,87.74
2022-12-31T19:03:32.261Z,86.68
2022-12-31T19:05:59.215Z,87.40
2022-12-31T19:08:26.036Z,86.85
2022-12-31T19:10:53.650Z,86.89
2022-12-31T19:13:20.612Z,87.19
2022-12-31T19:15:51.458Z,87.05
2022-12-31T19:18:18.682Z,87.52
2022-12-31T19:20:45.880Z,86.78
2022-12-31T19:23:18.029Z,86.77
2022-12-31T19:25:45.839Z,88.03
2022-12-31T19:28:17.460Z,86.87
2022-12-31T19:30:44.845Z,86.93
2022-12-31T19:33:12.072Z,85.90
2022-12-31T19:35:39.793Z,86.02
2022-12-31T19:38:11.828Z,85.80
2022-12-31T19:40:39.978Z,84.95
2022-12-31T19:43:11.028Z,85.73
2022-12-31T19:45:37.934Z,84.75
2022-12-31T19:48:04.891Z,83.60
2022-12-31T19:50:31.829Z,83.92
2022-12-31T19:52:58.834Z,82.80
2022-12-31T19:55:26.341Z,83.18
2022-12-31T19:57:53.496Z,82.65
2022-12-31T20:00:20.696Z,82.26
2022-12-31T20:02:48.552Z,80.82
2022-12-31T20:05:16.361Z,80.91
2022-12-31T20:07:43.207Z,80.89
2022-12-31T20:10:10.935Z,80.86
2022-12-31T20:12:42.330Z,79.91
2022-12-31T20:15:11.195Z,80.08
2022-12-31T20:17:38.094Z,80.52
2022-12-31T20:20:05.595Z,79.95
2022-12-31T20:22:32.827Z,79.62
2022-12-31T20:24:59.744Z,78.85
2022-12-31T20:27:26.616Z,79.13
2022-12-31T20:29:53.535Z,78.79
2022-12-31T20:32:20.346Z,78.07
2022-12-31T20:34:47.197Z,77.38
2022-12-31T20:37:14.051Z,77.13
2022-12-31T20:39:42.612Z,76.43
2022-12-31T20:42:09.737Z,77.33
2022-12-31T20:44:36.633Z,76.17
2022-12-31T20:47:03.560Z,76.21
2022-12-31T20:50:09.238Z,73.89
2022-12-31T20:52:17.273Z,74.13
2022-12-31T20:54:44.104Z,75.11
2022-12-31T20:57:10.982Z,75.13
2022-12-31T20:59:37.888Z,74.42
2022-12-31T21:02:21.061Z,74.18
2022-12-31T21:04:48.684Z,74.13
2022-12-31T21:07:15.678Z,73.98
2022-12-31T21:09:42.541Z,73.93
2022-12-31T21:12:29.851Z,73.20
2022-12-31T21:14:56.792Z,74.22
2022-12-31T21:17:23.686Z,74.66
2022-12-31T21:19:50.553Z,74.05
2022-12-31T21:22:17.596Z,74.13
2022-12-31T21:24:44.468Z,73.18
2022-12-31T21:27:11.326Z,75.26
2022-12-31T21:29:55.781Z,72.99
2022-12-31T21:32:25.165Z,73.35
2022-12-31T21:35:31.071Z,73.03
2022-12-31T21:37:58.746Z,73.86
2022-12-31T21:40:25.703Z,74.03
2022-12-31T21:42:52.520Z,74.33
2022-12-31T21:45:19.440Z,73.78
2022-12-31T21:48:05.076Z,74.94
2022-12-31T21:50:32.540Z,73.28
2022-12-31T21:52:59.355Z,74.81
2022-12-31T21:55:44.688Z,75.39
2022-12-31T21:58:28.123Z,75.25
2022-12-31T22:01:14.706Z,74.45
2022-12-31T22:03:41.798Z,74.56
2022-12-31T22:06:10.396Z,74.69
2022-12-31T22:08:37.761Z,75.90
2022-12-31T22:11:04.714Z,76.30
2022-12-31T22:13:31.796Z,75.65
2022-12-31T22:16:04.840Z,75.64
2022-12-31T22:18:34.857Z,75.05
2022-12-31T22:21:07.724Z,75.22
2022-12-31T22:23:38.030Z,75.00
2022-12-31T22:26:05.836Z,74.24
2022-12-31T22:28:38.593Z,73.96
2022-12-31T22:31:07.409Z,74.52
2022-12-31T22:33:34.334Z,75.49
2022-12-31T22:36:02.097Z,75.32
2022-12-31T22:38:29.418Z,75.85
2022-12-31T22:41:06.641Z,74.92
2022-12-31T22:43:34.127Z,74.66
2022-12-31T22:46:07.823Z,75.24
2022-12-31T22:48:34.674Z,76.11
2022-12-31T22:51:01.640Z,75.30
2022-12-31T22:53:28.590Z,75.30
2022-12-31T22:55:55.896Z,74.94
2022-12-31T22:58:23.404Z,75.64
2022-12-31T23:00:50.317Z,75.25
2022-12-31T23:03:17.570Z,76.54
2022-12-31T23:05:44.608Z,75.33
2022-12-31T23:08:20.567Z,76.00
2022-12-31T23:10:59.926Z,76.68
2022-12-31T23:13:50.558Z,75.59
2022-12-31T23:16:38.193Z,74.94
2022-12-31T23:19:24.437Z,75.19
2022-12-31T23:22:10.325Z,75.06
2022-12-31T23:24:37.285Z,75.30
2022-12-31T23:27:04.523Z,75.70
2022-12-31T23:29:31.428Z,75.32
2022-12-31T23:31:58.315Z,75.63
2022-12-31T23:34:25.158Z,75.26
2022-12-31T23:36:52.014Z,75.66
2022-12-31T23:39:19.060Z,75.03
2022-12-31T23:41:45.894Z,75.90
2022-12-31T23:44:12.787Z,75.30
2022-12-31T23:46:39.994Z,75.71
2022-12-31T23:49:06.878Z,75.45
2022-12-31T23:51:35.869Z,76.29
2022-12-31T23:54:03.854Z,75.89
2022-12-31T23:56:30.758Z,75.83
2022-12-31T23:58:58.257Z,75.29
